sensor_id;sensor_type;location;lat;lon;timestamp;P1;durP1;ratioP1;P2;durP2;ratioP2
9447;SDS011;4762;48.128;11.376;2024-03-06T00:01:40;14.80;;;9.70;;
9447;SDS011;4762;48.128;11.376;2024-03-06T00:03:43;12.50;;;9.30;;
9447;SDS011;4762;48.128;11.376;2024-03-06T00:05:45;22.27;;;8.70;;
9447;SDS011;4762;48.128;11.376;2024-03-06T00:07:47;15.43;;;9.00;;
9447;SDS011;4762;48.128;11.376;2024-03-06T00:09:50;13.20;;;9.93;;
9447;SDS011;4762;48.128;11.376;2024-03-06T00:11:52;15.80;;;10.27;;
9447;SDS011;4762;48.128;11.376;2024-03-06T00:13:54;18.00;;;11.30;;
9447;SDS011;4762;48.128;11.376;2024-03-06T00:15:56;15.57;;;10.33;;
9447;SDS011;4762;48.128;11.376;2024-03-06T00:17:58;16.47;;;9.10;;
9447;SDS011;4762;48.128;11.376;2024-03-06T00:20:00;15.63;;;9.20;;
9447;SDS011;4762;48.128;11.376;2024-03-06T00:22:03;13.00;;;9.43;;
9447;SDS011;4762;48.128;11.376;2024-03-06T00:24:05;12.17;;;8.73;;
9447;SDS011;4762;48.128;11.376;2024-03-06T00:26:07;11.50;;;8.50;;
9447;SDS011;4762;48.128;11.376;2024-03-06T00:28:10;12.37;;;8.87;;
9447;SDS011;4762;48.128;11.376;2024-03-06T00:30:12;13.03;;;8.63;;
9447;SDS011;4762;48.128;11.376;2024-03-06T00:32:14;21.40;;;8.77;;
9447;SDS011;4762;48.128;11.376;2024-03-06T00:34:16;13.23;;;8.90;;
9447;SDS011;4762;48.128;11.376;2024-03-06T00:36:19;13.27;;;8.70;;
9447;SDS011;4762;48.128;11.376;2024-03-06T00:38:21;15.93;;;9.63;;
9447;SDS011;4762;48.128;11.376;2024-03-06T00:40:23;11.13;;;8.50;;
9447;SDS011;4762;48.128;11.376;2024-03-06T00:42:25;15.13;;;9.47;;
9447;SDS011;4762;48.128;11.376;2024-03-06T00:44:27;14.50;;;9.20;;
9447;SDS011;4762;48.128;11.376;2024-03-06T00:46:30;14.20;;;9.30;;
9447;SDS011;4762;48.128;11.376;2024-03-06T00:48:32;15.17;;;9.37;;
9447;SDS011;4762;48.128;11.376;2024-03-06T00:50:34;16.70;;;10.80;;
9447;SDS011;4762;48.128;11.376;2024-03-06T00:52:36;12.87;;;8.10;;
9447;SDS011;4762;48.128;11.376;2024-03-06T00:54:39;15.43;;;10.60;;
9447;SDS011;4762;48.128;11.376;2024-03-06T00:56:41;17.27;;;11.10;;
9447;SDS011;4762;48.128;11.376;2024-03-06T00:58:43;12.53;;;10.03;;
9447;SDS011;4762;48.128;11.376;2024-03-06T01:00:45;15.57;;;9.63;;
9447;SDS011;4762;48.128;11.376;2024-03-06T01:02:48;12.33;;;9.90;;
9447;SDS011;4762;48.128;11.376;2024-03-06T01:04:50;13.57;;;9.43;;
9447;SDS011;4762;48.128;11.376;2024-03-06T01:06:52;12.93;;;9.30;;
9447;SDS011;4762;48.128;11.376;2024-03-06T01:08:55;9.50;;;8.57;;
9447;SDS011;4762;48.128;11.376;2024-03-06T01:10:56;21.90;;;9.97;;
9447;SDS011;4762;48.128;11.376;2024-03-06T01:12:59;14.80;;;9.47;;
9447;SDS011;4762;48.128;11.376;2024-03-06T01:15:01;17.00;;;10.67;;
9447;SDS011;4762;48.128;11.376;2024-03-06T01:17:03;16.77;;;10.43;;
9447;SDS011;4762;48.128;11.376;2024-03-06T01:19:05;11.50;;;8.50;;
9447;SDS011;4762;48.128;11.376;2024-03-06T01:21:08;14.50;;;10.50;;
9447;SDS011;4762;48.128;11.376;2024-03-06T01:23:10;12.73;;;9.67;;
9447;SDS011;4762;48.128;11.376;2024-03-06T01:25:12;18.13;;;11.40;;
9447;SDS011;4762;48.128;11.376;2024-03-06T01:27:15;13.57;;;9.70;;
9447;SDS011;4762;48.128;11.376;2024-03-06T01:29:17;15.93;;;10.80;;
9447;SDS011;4762;48.128;11.376;2024-03-06T01:31:19;13.97;;;10.10;;
9447;SDS011;4762;48.128;11.376;2024-03-06T01:33:21;13.43;;;8.90;;
9447;SDS011;4762;48.128;11.376;2024-03-06T01:35:25;12.53;;;8.80;;
9447;SDS011;4762;48.128;11.376;2024-03-06T01:37:27;18.20;;;10.03;;
9447;SDS011;4762;48.128;11.376;2024-03-06T01:39:29;14.73;;;10.87;;
9447;SDS011;4762;48.128;11.376;2024-03-06T01:41:31;11.57;;;10.07;;
9447;SDS011;4762;48.128;11.376;2024-03-06T01:43:38;23.03;;;10.67;;
9447;SDS011;4762;48.128;11.376;2024-03-06T01:45:40;15.90;;;9.50;;
9447;SDS011;4762;48.128;11.376;2024-03-06T01:47:43;16.30;;;10.00;;
9447;SDS011;4762;48.128;11.376;2024-03-06T01:49:45;16.80;;;9.23;;
9447;SDS011;4762;48.128;11.376;2024-03-06T01:51:49;16.80;;;9.60;;
9447;SDS011;4762;48.128;11.376;2024-03-06T01:53:50;12.70;;;9.00;;
9447;SDS011;4762;48.128;11.376;2024-03-06T01:55:53;13.43;;;9.90;;
9447;SDS011;4762;48.128;11.376;2024-03-06T01:57:55;14.93;;;9.27;;
9447;SDS011;4762;48.128;11.376;2024-03-06T01:59:58;15.23;;;10.50;;
9447;SDS011;4762;48.128;11.376;2024-03-06T02:02:00;12.90;;;8.60;;
9447;SDS011;4762;48.128;11.376;2024-03-06T02:04:02;12.20;;;8.60;;
9447;SDS011;4762;48.128;11.376;2024-03-06T02:06:05;13.83;;;9.53;;
9447;SDS011;4762;48.128;11.376;2024-03-06T02:08:08;17.13;;;9.23;;
9447;SDS011;4762;48.128;11.376;2024-03-06T02:10:11;13.23;;;9.33;;
9447;SDS011;4762;48.128;11.376;2024-03-06T02:12:13;11.37;;;9.03;;
9447;SDS011;4762;48.128;11.376;2024-03-06T02:14:15;13.67;;;9.60;;
9447;SDS011;4762;48.128;11.376;2024-03-06T02:16:17;13.83;;;8.37;;
9447;SDS011;4762;48.128;11.376;2024-03-06T02:18:20;14.97;;;9.30;;
9447;SDS011;4762;48.128;11.376;2024-03-06T02:20:23;16.43;;;9.93;;
9447;SDS011;4762;48.128;11.376;2024-03-06T02:22:24;11.50;;;9.43;;
9447;SDS011;4762;48.128;11.376;2024-03-06T02:24:27;14.30;;;9.63;;
9447;SDS011;4762;48.128;11.376;2024-03-06T02:26:29;11.27;;;8.53;;
9447;SDS011;4762;48.128;11.376;2024-03-06T02:28:31;18.50;;;10.33;;
9447;SDS011;4762;48.128;11.376;2024-03-06T02:30:34;14.83;;;9.20;;
9447;SDS011;4762;48.128;11.376;2024-03-06T02:32:36;14.50;;;7.97;;
9447;SDS011;4762;48.128;11.376;2024-03-06T02:34:39;12.40;;;8.50;;
9447;SDS011;4762;48.128;11.376;2024-03-06T02:36:41;18.40;;;9.90;;
9447;SDS011;4762;48.128;11.376;2024-03-06T02:38:43;14.77;;;8.80;;
9447;SDS011;4762;48.128;11.376;2024-03-06T02:40:45;16.13;;;9.80;;
9447;SDS011;4762;48.128;11.376;2024-03-06T02:42:47;17.43;;;10.27;;
9447;SDS011;4762;48.128;11.376;2024-03-06T02:44:50;13.23;;;9.77;;
9447;SDS011;4762;48.128;11.376;2024-03-06T02:46:52;19.00;;;10.17;;
9447;SDS011;4762;48.128;11.376;2024-03-06T02:48:54;16.50;;;9.97;;
9447;SDS011;4762;48.128;11.376;2024-03-06T02:50:57;12.60;;;9.03;;
9447;SDS011;4762;48.128;11.376;2024-03-06T02:52:59;14.60;;;9.80;;
9447;SDS011;4762;48.128;11.376;2024-03-06T02:55:01;20.03;;;10.40;;
9447;SDS011;4762;48.128;11.376;2024-03-06T02:57:03;16.20;;;10.20;;
9447;SDS011;4762;48.128;11.376;2024-03-06T02:59:07;14.90;;;11.30;;
9447;SDS011;4762;48.128;11.376;2024-03-06T03:01:08;16.33;;;10.87;;
9447;SDS011;4762;48.128;11.376;2024-03-06T03:03:10;17.97;;;10.00;;
9447;SDS011;4762;48.128;11.376;2024-03-06T03:05:13;16.07;;;10.00;;
9447;SDS011;4762;48.128;11.376;2024-03-06T03:07:15;21.53;;;12.20;;
9447;SDS011;4762;48.128;11.376;2024-03-06T03:09:18;16.97;;;11.60;;
9447;SDS011;4762;48.128;11.376;2024-03-06T03:11:20;19.10;;;12.40;;
9447;SDS011;4762;48.128;11.376;2024-03-06T03:13:22;23.70;;;12.30;;
9447;SDS011;4762;48.128;11.376;2024-03-06T03:15:24;21.00;;;11.63;;
9447;SDS011;4762;48.128;11.376;2024-03-06T03:17:26;21.13;;;11.40;;
9447;SDS011;4762;48.128;11.376;2024-03-06T03:19:29;21.80;;;12.23;;
9447;SDS011;4762;48.128;11.376;2024-03-06T03:21:31;21.40;;;12.30;;
9447;SDS011;4762;48.128;11.376;2024-03-06T03:23:33;17.33;;;11.13;;
9447;SDS011;4762;48.128;11.376;2024-03-06T03:25:35;23.10;;;13.60;;
9447;SDS011;4762;48.128;11.376;2024-03-06T03:27:39;23.60;;;11.70;;
9447;SDS011;4762;48.128;11.376;2024-03-06T03:29:41;21.53;;;13.10;;
9447;SDS011;4762;48.128;11.376;2024-03-06T03:31:43;16.73;;;11.50;;
9447;SDS011;4762;48.128;11.376;2024-03-06T03:33:46;25.80;;;12.30;;
9447;SDS011;4762;48.128;11.376;2024-03-06T03:35:48;19.00;;;12.23;;
9447;SDS011;4762;48.128;11.376;2024-03-06T03:37:51;16.13;;;10.80;;
9447;SDS011;4762;48.128;11.376;2024-03-06T03:39:53;17.43;;;11.07;;
9447;SDS011;4762;48.128;11.376;2024-03-06T03:41:55;22.80;;;11.90;;
9447;SDS011;4762;48.128;11.376;2024-03-06T03:43:58;18.80;;;11.07;;
9447;SDS011;4762;48.128;11.376;2024-03-06T03:46:00;18.80;;;11.83;;
9447;SDS011;4762;48.128;11.376;2024-03-06T03:48:02;17.83;;;11.00;;
9447;SDS011;4762;48.128;11.376;2024-03-06T03:50:05;20.73;;;13.33;;
9447;SDS011;4762;48.128;11.376;2024-03-06T03:52:07;17.73;;;11.80;;
9447;SDS011;4762;48.128;11.376;2024-03-06T03:54:09;22.70;;;13.10;;
9447;SDS011;4762;48.128;11.376;2024-03-06T03:56:12;22.50;;;12.10;;
9447;SDS011;4762;48.128;11.376;2024-03-06T03:58:14;21.77;;;12.00;;
9447;SDS011;4762;48.128;11.376;2024-03-06T04:00:16;17.20;;;11.40;;
9447;SDS011;4762;48.128;11.376;2024-03-06T04:02:19;20.93;;;10.83;;
9447;SDS011;4762;48.128;11.376;2024-03-06T04:04:21;14.33;;;9.57;;
9447;SDS011;4762;48.128;11.376;2024-03-06T04:06:23;19.67;;;12.30;;
9447;SDS011;4762;48.128;11.376;2024-03-06T04:08:25;18.93;;;11.50;;
9447;SDS011;4762;48.128;11.376;2024-03-06T04:10:27;17.10;;;11.40;;
9447;SDS011;4762;48.128;11.376;2024-03-06T04:12:30;15.50;;;11.07;;
9447;SDS011;4762;48.128;11.376;2024-03-06T04:14:33;18.57;;;10.67;;
9447;SDS011;4762;48.128;11.376;2024-03-06T04:16:35;19.73;;;11.40;;
9447;SDS011;4762;48.128;11.376;2024-03-06T04:18:37;16.40;;;10.40;;
9447;SDS011;4762;48.128;11.376;2024-03-06T04:20:39;16.30;;;8.87;;
9447;SDS011;4762;48.128;11.376;2024-03-06T04:22:42;15.90;;;9.53;;
9447;SDS011;4762;48.128;11.376;2024-03-06T04:24:44;14.03;;;9.30;;
9447;SDS011;4762;48.128;11.376;2024-03-06T04:26:46;21.93;;;11.03;;
9447;SDS011;4762;48.128;11.376;2024-03-06T04:28:48;16.33;;;10.90;;
9447;SDS011;4762;48.128;11.376;2024-03-06T04:30:51;17.53;;;10.30;;
9447;SDS011;4762;48.128;11.376;2024-03-06T04:32:53;16.27;;;10.67;;
9447;SDS011;4762;48.128;11.376;2024-03-06T04:34:57;12.10;;;8.77;;
9447;SDS011;4762;48.128;11.376;2024-03-06T04:36:59;13.93;;;8.67;;
9447;SDS011;4762;48.128;11.376;2024-03-06T04:39:01;11.90;;;8.30;;
9447;SDS011;4762;48.128;11.376;2024-03-06T04:41:05;15.47;;;8.20;;
9447;SDS011;4762;48.128;11.376;2024-03-06T04:43:06;12.23;;;8.27;;
9447;SDS011;4762;48.128;11.376;2024-03-06T04:45:10;17.03;;;10.87;;
9447;SDS011;4762;48.128;11.376;2024-03-06T04:47:11;11.10;;;7.37;;
9447;SDS011;4762;48.128;11.376;2024-03-06T04:49:14;13.57;;;9.03;;
9447;SDS011;4762;48.128;11.376;2024-03-06T04:51:16;20.40;;;10.70;;
9447;SDS011;4762;48.128;11.376;2024-03-06T04:53:18;17.57;;;10.50;;
9447;SDS011;4762;48.128;11.376;2024-03-06T04:55:20;18.27;;;10.13;;
9447;SDS011;4762;48.128;11.376;2024-03-06T04:57:23;24.90;;;11.30;;
9447;SDS011;4762;48.128;11.376;2024-03-06T04:59:25;27.53;;;10.50;;
9447;SDS011;4762;48.128;11.376;2024-03-06T05:01:27;14.87;;;9.30;;
9447;SDS011;4762;48.128;11.376;2024-03-06T05:03:29;17.50;;;10.87;;
9447;SDS011;4762;48.128;11.376;2024-03-06T05:05:32;22.40;;;10.30;;
9447;SDS011;4762;48.128;11.376;2024-03-06T05:07:34;12.97;;;8.90;;
9447;SDS011;4762;48.128;11.376;2024-03-06T05:09:37;22.63;;;11.00;;
9447;SDS011;4762;48.128;11.376;2024-03-06T05:11:39;15.77;;;9.40;;
9447;SDS011;4762;48.128;11.376;2024-03-06T05:13:41;17.60;;;9.80;;
9447;SDS011;4762;48.128;11.376;2024-03-06T05:15:44;17.93;;;11.03;;
9447;SDS011;4762;48.128;11.376;2024-03-06T05:17:46;9.43;;;5.90;;
9447;SDS011;4762;48.128;11.376;2024-03-06T05:19:49;9.77;;;6.00;;
9447;SDS011;4762;48.128;11.376;2024-03-06T05:21:50;6.30;;;4.67;;
9447;SDS011;4762;48.128;11.376;2024-03-06T05:23:52;7.40;;;4.83;;
9447;SDS011;4762;48.128;11.376;2024-03-06T05:25:55;5.23;;;4.60;;
9447;SDS011;4762;48.128;11.376;2024-03-06T05:27:57;10.10;;;5.70;;
9447;SDS011;4762;48.128;11.376;2024-03-06T05:29:59;6.13;;;4.77;;
9447;SDS011;4762;48.128;11.376;2024-03-06T05:32:02;9.27;;;5.20;;
9447;SDS011;4762;48.128;11.376;2024-03-06T05:34:04;6.93;;;5.00;;
9447;SDS011;4762;48.128;11.376;2024-03-06T05:36:06;7.87;;;5.00;;
9447;SDS011;4762;48.128;11.376;2024-03-06T05:38:08;6.70;;;5.30;;
9447;SDS011;4762;48.128;11.376;2024-03-06T05:40:11;5.67;;;4.37;;
9447;SDS011;4762;48.128;11.376;2024-03-06T05:42:13;7.03;;;4.10;;
9447;SDS011;4762;48.128;11.376;2024-03-06T05:44:18;5.40;;;3.93;;
9447;SDS011;4762;48.128;11.376;2024-03-06T05:46:20;6.60;;;4.03;;
9447;SDS011;4762;48.128;11.376;2024-03-06T05:48:23;6.40;;;3.40;;
9447;SDS011;4762;48.128;11.376;2024-03-06T05:50:25;6.43;;;3.87;;
9447;SDS011;4762;48.128;11.376;2024-03-06T05:52:27;6.17;;;3.90;;
9447;SDS011;4762;48.128;11.376;2024-03-06T05:54:29;6.27;;;3.97;;
9447;SDS011;4762;48.128;11.376;2024-03-06T05:56:32;6.80;;;4.10;;
9447;SDS011;4762;48.128;11.376;2024-03-06T05:58:34;4.30;;;3.47;;
9447;SDS011;4762;48.128;11.376;2024-03-06T06:00:36;4.40;;;2.80;;
9447;SDS011;4762;48.128;11.376;2024-03-06T06:02:38;5.00;;;4.07;;
9447;SDS011;4762;48.128;11.376;2024-03-06T06:04:40;6.63;;;3.13;;
9447;SDS011;4762;48.128;11.376;2024-03-06T06:06:43;4.57;;;3.37;;
9447;SDS011;4762;48.128;11.376;2024-03-06T06:11:10;6.53;;;3.90;;
9447;SDS011;4762;48.128;11.376;2024-03-06T06:13:12;4.70;;;3.47;;
9447;SDS011;4762;48.128;11.376;2024-03-06T06:15:14;4.87;;;3.10;;
9447;SDS011;4762;48.128;11.376;2024-03-06T06:17:16;4.77;;;3.37;;
9447;SDS011;4762;48.128;11.376;2024-03-06T06:19:18;3.47;;;2.90;;
9447;SDS011;4762;48.128;11.376;2024-03-06T06:21:20;5.23;;;3.23;;
9447;SDS011;4762;48.128;11.376;2024-03-06T06:23:23;4.63;;;3.20;;
9447;SDS011;4762;48.128;11.376;2024-03-06T06:25:25;8.67;;;3.77;;
9447;SDS011;4762;48.128;11.376;2024-03-06T06:27:27;7.60;;;3.23;;
9447;SDS011;4762;48.128;11.376;2024-03-06T06:29:29;4.80;;;3.40;;
9447;SDS011;4762;48.128;11.376;2024-03-06T06:31:33;4.63;;;3.30;;
9447;SDS011;4762;48.128;11.376;2024-03-06T06:33:36;4.60;;;3.63;;
9447;SDS011;4762;48.128;11.376;2024-03-06T06:35:38;5.30;;;4.20;;
9447;SDS011;4762;48.128;11.376;2024-03-06T06:37:40;7.07;;;3.83;;
9447;SDS011;4762;48.128;11.376;2024-03-06T06:39:43;8.03;;;3.27;;
9447;SDS011;4762;48.128;11.376;2024-03-06T06:41:45;6.27;;;3.80;;
9447;SDS011;4762;48.128;11.376;2024-03-06T06:43:47;4.87;;;3.50;;
9447;SDS011;4762;48.128;11.376;2024-03-06T06:45:50;5.10;;;3.40;;
9447;SDS011;4762;48.128;11.376;2024-03-06T06:47:53;4.07;;;3.30;;
9447;SDS011;4762;48.128;11.376;2024-03-06T06:49:57;4.17;;;3.27;;
9447;SDS011;4762;48.128;11.376;2024-03-06T06:52:02;5.60;;;4.13;;
9447;SDS011;4762;48.128;11.376;2024-03-06T06:54:05;8.10;;;3.20;;
9447;SDS011;4762;48.128;11.376;2024-03-06T06:56:08;4.80;;;3.67;;
9447;SDS011;4762;48.128;11.376;2024-03-06T06:58:10;8.27;;;4.87;;
9447;SDS011;4762;48.128;11.376;2024-03-06T07:00:15;6.00;;;3.30;;
9447;SDS011;4762;48.128;11.376;2024-03-06T07:02:21;5.43;;;4.10;;
9447;SDS011;4762;48.128;11.376;2024-03-06T07:04:26;4.90;;;3.30;;
9447;SDS011;4762;48.128;11.376;2024-03-06T07:06:33;7.33;;;3.83;;
9447;SDS011;4762;48.128;11.376;2024-03-06T07:08:35;12.67;;;5.27;;
9447;SDS011;4762;48.128;11.376;2024-03-06T07:10:39;4.67;;;2.93;;
9447;SDS011;4762;48.128;11.376;2024-03-06T07:12:43;12.00;;;4.27;;
9447;SDS011;4762;48.128;11.376;2024-03-06T07:22:04;5.23;;;3.53;;
9447;SDS011;4762;48.128;11.376;2024-03-06T07:41:22;4.23;;;2.60;;
9447;SDS011;4762;48.128;11.376;2024-03-06T08:00:44;3.40;;;2.33;;
9447;SDS011;4762;48.128;11.376;2024-03-06T08:03:15;4.17;;;2.50;;
9447;SDS011;4762;48.128;11.376;2024-03-06T08:07:41;3.20;;;2.47;;
9447;SDS011;4762;48.128;11.376;2024-03-06T08:26:57;2.70;;;1.90;;
9447;SDS011;4762;48.128;11.376;2024-03-06T08:33:45;4.73;;;2.20;;
9447;SDS011;4762;48.128;11.376;2024-03-06T08:45:38;3.63;;;2.37;;
9447;SDS011;4762;48.128;11.376;2024-03-06T08:47:41;2.33;;;1.90;;
9447;SDS011;4762;48.128;11.376;2024-03-06T08:49:43;4.20;;;2.67;;
9447;SDS011;4762;48.128;11.376;2024-03-06T08:51:45;2.43;;;2.20;;
9447;SDS011;4762;48.128;11.376;2024-03-06T08:53:47;2.30;;;1.77;;
9447;SDS011;4762;48.128;11.376;2024-03-06T08:55:50;3.03;;;2.20;;
9447;SDS011;4762;48.128;11.376;2024-03-06T08:57:53;2.70;;;2.10;;
9447;SDS011;4762;48.128;11.376;2024-03-06T08:59:55;3.70;;;2.73;;
9447;SDS011;4762;48.128;11.376;2024-03-06T09:01:59;3.23;;;2.40;;
9447;SDS011;4762;48.128;11.376;2024-03-06T09:04:01;3.33;;;2.37;;
9447;SDS011;4762;48.128;11.376;2024-03-06T09:06:03;2.70;;;2.40;;
9447;SDS011;4762;48.128;11.376;2024-03-06T09:08:06;6.17;;;3.30;;
9447;SDS011;4762;48.128;11.376;2024-03-06T09:10:08;3.20;;;2.47;;
9447;SDS011;4762;48.128;11.376;2024-03-06T09:12:12;3.97;;;3.00;;
9447;SDS011;4762;48.128;11.376;2024-03-06T09:14:14;4.83;;;3.10;;
9447;SDS011;4762;48.128;11.376;2024-03-06T09:16:17;3.17;;;2.10;;
9447;SDS011;4762;48.128;11.376;2024-03-06T09:18:21;6.07;;;2.30;;
9447;SDS011;4762;48.128;11.376;2024-03-06T09:20:23;3.33;;;2.57;;
9447;SDS011;4762;48.128;11.376;2024-03-06T09:22:26;4.37;;;2.57;;
9447;SDS011;4762;48.128;11.376;2024-03-06T09:24:28;4.10;;;2.33;;
9447;SDS011;4762;48.128;11.376;2024-03-06T09:26:30;2.80;;;2.50;;
9447;SDS011;4762;48.128;11.376;2024-03-06T09:28:33;6.87;;;3.23;;
9447;SDS011;4762;48.128;11.376;2024-03-06T09:30:35;2.50;;;2.10;;
9447;SDS011;4762;48.128;11.376;2024-03-06T09:32:38;4.90;;;2.30;;
9447;SDS011;4762;48.128;11.376;2024-03-06T09:34:40;3.90;;;3.00;;
9447;SDS011;4762;48.128;11.376;2024-03-06T09:36:45;5.37;;;2.67;;
9447;SDS011;4762;48.128;11.376;2024-03-06T09:38:47;2.03;;;1.70;;
9447;SDS011;4762;48.128;11.376;2024-03-06T09:40:49;2.30;;;2.10;;
9447;SDS011;4762;48.128;11.376;2024-03-06T09:42:52;4.17;;;2.60;;
9447;SDS011;4762;48.128;11.376;2024-03-06T09:44:54;2.60;;;2.20;;
9447;SDS011;4762;48.128;11.376;2024-03-06T09:46:58;3.37;;;2.27;;
9447;SDS011;4762;48.128;11.376;2024-03-06T09:49:00;4.50;;;2.33;;
9447;SDS011;4762;48.128;11.376;2024-03-06T09:51:03;7.33;;;2.80;;
9447;SDS011;4762;48.128;11.376;2024-03-06T09:53:05;2.60;;;2.20;;
9447;SDS011;4762;48.128;11.376;2024-03-06T09:55:08;3.00;;;2.17;;
9447;SDS011;4762;48.128;11.376;2024-03-06T09:57:10;2.30;;;1.77;;
9447;SDS011;4762;48.128;11.376;2024-03-06T09:59:12;3.33;;;1.90;;
9447;SDS011;4762;48.128;11.376;2024-03-06T10:01:15;3.17;;;2.30;;
9447;SDS011;4762;48.128;11.376;2024-03-06T10:03:17;3.30;;;2.50;;
9447;SDS011;4762;48.128;11.376;2024-03-06T10:05:20;3.70;;;2.40;;
9447;SDS011;4762;48.128;11.376;2024-03-06T10:07:22;3.33;;;2.30;;
9447;SDS011;4762;48.128;11.376;2024-03-06T10:09:24;5.20;;;2.20;;
9447;SDS011;4762;48.128;11.376;2024-03-06T10:11:26;3.00;;;2.53;;
9447;SDS011;4762;48.128;11.376;2024-03-06T10:13:28;3.30;;;2.03;;
9447;SDS011;4762;48.128;11.376;2024-03-06T10:15:31;3.17;;;1.90;;
9447;SDS011;4762;48.128;11.376;2024-03-06T10:17:33;3.57;;;2.07;;
9447;SDS011;4762;48.128;11.376;2024-03-06T10:19:36;4.03;;;3.00;;
9447;SDS011;4762;48.128;11.376;2024-03-06T10:21:38;4.50;;;2.43;;
9447;SDS011;4762;48.128;11.376;2024-03-06T10:23:41;2.63;;;2.20;;
9447;SDS011;4762;48.128;11.376;2024-03-06T10:25:44;3.20;;;2.10;;
9447;SDS011;4762;48.128;11.376;2024-03-06T10:28:02;3.07;;;2.30;;
9447;SDS011;4762;48.128;11.376;2024-03-06T10:30:00;2.60;;;2.33;;
9447;SDS011;4762;48.128;11.376;2024-03-06T10:34:12;6.23;;;2.57;;
9447;SDS011;4762;48.128;11.376;2024-03-06T10:36:15;5.83;;;2.30;;
9447;SDS011;4762;48.128;11.376;2024-03-06T10:38:19;2.87;;;2.03;;
9447;SDS011;4762;48.128;11.376;2024-03-06T10:40:19;3.23;;;2.70;;
9447;SDS011;4762;48.128;11.376;2024-03-06T10:42:21;2.83;;;2.10;;
9447;SDS011;4762;48.128;11.376;2024-03-06T10:44:25;3.57;;;2.50;;
9447;SDS011;4762;48.128;11.376;2024-03-06T10:46:28;4.00;;;2.57;;
9447;SDS011;4762;48.128;11.376;2024-03-06T10:48:30;5.90;;;2.37;;
9447;SDS011;4762;48.128;11.376;2024-03-06T10:50:32;2.87;;;2.30;;
9447;SDS011;4762;48.128;11.376;2024-03-06T10:52:36;2.47;;;2.27;;
9447;SDS011;4762;48.128;11.376;2024-03-06T10:54:37;2.67;;;2.03;;
9447;SDS011;4762;48.128;11.376;2024-03-06T10:56:40;3.13;;;2.33;;
9447;SDS011;4762;48.128;11.376;2024-03-06T10:58:43;4.17;;;2.77;;
9447;SDS011;4762;48.128;11.376;2024-03-06T11:00:46;3.67;;;2.40;;
9447;SDS011;4762;48.128;11.376;2024-03-06T11:02:48;3.80;;;2.60;;
9447;SDS011;4762;48.128;11.376;2024-03-06T11:04:50;4.17;;;2.43;;
9447;SDS011;4762;48.128;11.376;2024-03-06T11:06:55;2.20;;;2.00;;
9447;SDS011;4762;48.128;11.376;2024-03-06T11:08:57;3.27;;;2.00;;
9447;SDS011;4762;48.128;11.376;2024-03-06T11:13:23;3.37;;;2.73;;
9447;SDS011;4762;48.128;11.376;2024-03-06T11:15:28;2.57;;;2.07;;
9447;SDS011;4762;48.128;11.376;2024-03-06T11:17:31;3.13;;;2.50;;
9447;SDS011;4762;48.128;11.376;2024-03-06T11:21:47;3.40;;;2.57;;
9447;SDS011;4762;48.128;11.376;2024-03-06T11:26:05;3.40;;;2.70;;
9447;SDS011;4762;48.128;11.376;2024-03-06T11:28:09;2.70;;;2.50;;
9447;SDS011;4762;48.128;11.376;2024-03-06T11:30:10;5.73;;;3.43;;
9447;SDS011;4762;48.128;11.376;2024-03-06T11:32:13;4.80;;;3.43;;
9447;SDS011;4762;48.128;11.376;2024-03-06T11:34:15;5.13;;;3.30;;
9447;SDS011;4762;48.128;11.376;2024-03-06T11:36:19;9.20;;;3.00;;
9447;SDS011;4762;48.128;11.376;2024-03-06T11:38:28;3.43;;;2.90;;
9447;SDS011;4762;48.128;11.376;2024-03-06T11:40:31;2.57;;;2.33;;
9447;SDS011;4762;48.128;11.376;2024-03-06T11:42:34;4.50;;;2.90;;
9447;SDS011;4762;48.128;11.376;2024-03-06T11:44:36;4.10;;;2.53;;
9447;SDS011;4762;48.128;11.376;2024-03-06T11:46:41;2.10;;;1.73;;
9447;SDS011;4762;48.128;11.376;2024-03-06T11:48:51;2.50;;;2.10;;
9447;SDS011;4762;48.128;11.376;2024-03-06T11:50:53;3.73;;;2.23;;
9447;SDS011;4762;48.128;11.376;2024-03-06T11:52:56;4.20;;;2.73;;
9447;SDS011;4762;48.128;11.376;2024-03-06T11:54:58;4.23;;;2.37;;
9447;SDS011;4762;48.128;11.376;2024-03-06T11:57:02;4.67;;;2.50;;
9447;SDS011;4762;48.128;11.376;2024-03-06T11:59:05;2.90;;;2.03;;
9447;SDS011;4762;48.128;11.376;2024-03-06T12:01:08;4.80;;;2.23;;
9447;SDS011;4762;48.128;11.376;2024-03-06T12:03:10;5.20;;;2.50;;
9447;SDS011;4762;48.128;11.376;2024-03-06T12:05:12;4.20;;;2.20;;
9447;SDS011;4762;48.128;11.376;2024-03-06T12:07:15;3.47;;;2.50;;
9447;SDS011;4762;48.128;11.376;2024-03-06T12:09:17;4.07;;;2.40;;
9447;SDS011;4762;48.128;11.376;2024-03-06T12:11:19;4.90;;;2.67;;
9447;SDS011;4762;48.128;11.376;2024-03-06T12:13:24;3.60;;;2.40;;
9447;SDS011;4762;48.128;11.376;2024-03-06T12:15:26;2.87;;;2.23;;
9447;SDS011;4762;48.128;11.376;2024-03-06T12:17:29;3.67;;;2.63;;
9447;SDS011;4762;48.128;11.376;2024-03-06T12:19:31;3.40;;;2.60;;
9447;SDS011;4762;48.128;11.376;2024-03-06T12:21:34;3.13;;;2.30;;
9447;SDS011;4762;48.128;11.376;2024-03-06T12:23:36;3.23;;;2.63;;
9447;SDS011;4762;48.128;11.376;2024-03-06T12:25:38;4.23;;;3.00;;
9447;SDS011;4762;48.128;11.376;2024-03-06T12:27:41;3.23;;;2.60;;
9447;SDS011;4762;48.128;11.376;2024-03-06T12:29:43;6.87;;;3.27;;
9447;SDS011;4762;48.128;11.376;2024-03-06T12:31:45;3.00;;;2.70;;
9447;SDS011;4762;48.128;11.376;2024-03-06T12:33:56;3.57;;;2.57;;
9447;SDS011;4762;48.128;11.376;2024-03-06T12:35:59;3.03;;;2.10;;
9447;SDS011;4762;48.128;11.376;2024-03-06T12:38:12;2.73;;;2.43;;
9447;SDS011;4762;48.128;11.376;2024-03-06T12:40:15;3.53;;;2.57;;
9447;SDS011;4762;48.128;11.376;2024-03-06T12:42:17;3.43;;;2.50;;
9447;SDS011;4762;48.128;11.376;2024-03-06T12:44:20;4.40;;;3.23;;
9447;SDS011;4762;48.128;11.376;2024-03-06T12:46:23;4.20;;;2.90;;
9447;SDS011;4762;48.128;11.376;2024-03-06T12:48:26;5.63;;;2.97;;
9447;SDS011;4762;48.128;11.376;2024-03-06T12:50:29;4.23;;;2.57;;
9447;SDS011;4762;48.128;11.376;2024-03-06T12:52:33;3.10;;;2.33;;
9447;SDS011;4762;48.128;11.376;2024-03-06T12:54:35;2.67;;;2.20;;
9447;SDS011;4762;48.128;11.376;2024-03-06T12:56:39;4.23;;;3.37;;
9447;SDS011;4762;48.128;11.376;2024-03-06T12:58:41;4.07;;;2.67;;
9447;SDS011;4762;48.128;11.376;2024-03-06T13:00:45;5.60;;;3.27;;
9447;SDS011;4762;48.128;11.376;2024-03-06T13:02:47;5.77;;;3.43;;
9447;SDS011;4762;48.128;11.376;2024-03-06T13:04:51;4.67;;;2.87;;
9447;SDS011;4762;48.128;11.376;2024-03-06T13:06:53;4.60;;;3.00;;
9447;SDS011;4762;48.128;11.376;2024-03-06T13:08:56;4.60;;;3.87;;
9447;SDS011;4762;48.128;11.376;2024-03-06T13:10:59;5.03;;;2.97;;
9447;SDS011;4762;48.128;11.376;2024-03-06T13:13:02;5.17;;;3.70;;
9447;SDS011;4762;48.128;11.376;2024-03-06T13:15:05;4.40;;;3.17;;
9447;SDS011;4762;48.128;11.376;2024-03-06T13:17:08;3.10;;;2.80;;
9447;SDS011;4762;48.128;11.376;2024-03-06T13:19:11;5.27;;;3.20;;
9447;SDS011;4762;48.128;11.376;2024-03-06T13:21:14;3.20;;;2.80;;
9447;SDS011;4762;48.128;11.376;2024-03-06T13:23:17;5.83;;;3.43;;
9447;SDS011;4762;48.128;11.376;2024-03-06T13:25:20;4.73;;;3.00;;
9447;SDS011;4762;48.128;11.376;2024-03-06T13:27:23;4.97;;;3.07;;
9447;SDS011;4762;48.128;11.376;2024-03-06T13:29:25;3.93;;;2.30;;
9447;SDS011;4762;48.128;11.376;2024-03-06T13:31:29;4.17;;;2.90;;
9447;SDS011;4762;48.128;11.376;2024-03-06T13:33:33;3.30;;;2.50;;
9447;SDS011;4762;48.128;11.376;2024-03-06T13:35:36;3.67;;;2.53;;
9447;SDS011;4762;48.128;11.376;2024-03-06T13:37:40;3.53;;;2.43;;
9447;SDS011;4762;48.128;11.376;2024-03-06T13:39:42;3.13;;;2.17;;
9447;SDS011;4762;48.128;11.376;2024-03-06T13:41:45;6.30;;;2.70;;
9447;SDS011;4762;48.128;11.376;2024-03-06T13:43:48;2.43;;;1.77;;
9447;SDS011;4762;48.128;11.376;2024-03-06T13:45:51;4.17;;;2.37;;
9447;SDS011;4762;48.128;11.376;2024-03-06T13:47:54;3.70;;;2.03;;
9447;SDS011;4762;48.128;11.376;2024-03-06T13:49:56;2.90;;;1.83;;
9447;SDS011;4762;48.128;11.376;2024-03-06T13:51:59;2.67;;;1.63;;